Time;durP1;ratioP1;P1;durP2;ratioP2;P2;SDS_P1;SDS_P2;PMS_P1;PMS_P2;Temp;Humidity;BMP_temperature;BMP_pressure;BME280_temperature;BME280_humidity;BME280_pressure;Samples;Min_cycle;Max_cycle;Signal;HPM_P1;HPM_P2
2021/12/07 00:01:33;;;;;;;;;;;;;;;;;;4347189;33;20043;-70
2021/12/07 00:03:58;;;;;;;69.78;37.58;;;;;;;;;;4345722;33;19939;-70
2021/12/07 00:06:23;;;;;;;;;;;;;;;;;;4346651;33;20086;-69
2021/12/07 00:08:54;;;;;;;71.05;35.95;;;;;;;;;;4332974;33;19942;-70
2021/12/07 00:11:19;;;;;;;54.25;30.00;;;;;;;;;;4345851;33;20187;-70
2021/12/07 00:13:44;;;;;;;;;;;;;;;;;;4346527;33;20062;-69
2021/12/07 00:16:20;;;;;;;;;;;;;;;;;;;;;
2021/12/07 00:19:08;;;;;;;46.85;26.67;;;;;;;;;;4334161;33;20055;-70
2021/12/07 00:21:33;;;;;;;43.35;24.40;;;;;;;;;;4326190;33;20089;-70
2021/12/07 00:23:59;;;;;;;;;;;;;;;;;;4345906;33;20046;-70
2021/12/07 00:26:27;;;;;;;38.05;19.25;;;;;;;;;;4345324;33;20001;-70
2021/12/07 00:29:01;;;;;;;44.47;18.20;;;;;;;;;;4345957;33;20145;-70
2021/12/07 00:31:31;;;;;;;45.92;18.87;;;;;;;;;;4344572;33;20046;-70
2021/12/07 00:34:14;;;;;;;39.50;17.30;;;;;;;;;;4345657;33;20020;-70
2021/12/07 00:36:44;;;;;;;28.75;11.93;;;;;;;;;;4345923;33;20109;-70
2021/12/07 00:39:10;;;;;;;33.13;9.73;;;;;;;;;;4345394;33;20102;-70
2021/12/07 00:41:35;;;;;;;;;;;;;;;;;;4346545;33;20111;-70
2021/12/07 00:44:09;;;;;;;23.58;6.15;;;;;;;;;;4345456;33;20298;-70
2021/12/07 00:46:35;;;;;;;47.75;6.87;;;;;;;;;;4345606;33;20019;-69
2021/12/07 00:49:00;;;;;;;;;;;;;;;;;;4346230;33;20073;-70
2021/12/07 00:51:25;;;;;;;41.78;7.45;;;;;;;;;;4346109;33;19939;-70
2021/12/07 00:53:50;;;;;;;;;;;;;;;;;;4345482;33;20112;-71
2021/12/07 00:56:16;;;;;;;18.48;3.12;;;;;;;;;;4345734;33;19953;-70
2021/12/07 00:58:41;;;;;;;;;;;;;;;;;;4346126;33;20077;-70
2021/12/07 01:01:08;;;;;;;18.20;3.97;;;;;;;;;;4346501;33;20039;-70
2021/12/07 01:03:44;;;;;;;;;;;;;;;;;;;;;
2021/12/07 01:09:14;;;;;;;25.60;3.42;;;;;;;;;;4346052;33;20063;-70
2021/12/07 01:25:52;;;;;;;;;;;;;;;;;;;;;
2021/12/07 01:28:26;;;;;;;10.55;2.78;;;;;;;;;;4346053;33;20067;-71
2021/12/07 01:31:09;;;;;;;;;;;;;;;;;;;;;
2021/12/07 02:00:19;;;;;;;18.95;4.68;;;;;;;;;;4331766;33;20065;-71
2021/12/07 02:02:44;;;;;;;20.60;3.08;;;;;;;;;;4349190;33;20027;-71
2021/12/07 02:05:09;;;;;;;;;;;;;;;;;;4362595;32;20039;-71
2021/12/07 02:07:42;;;;;;;19.55;4.22;;;;;;;;;;4363070;32;19938;-71
2021/12/07 02:10:13;;;;;;;11.85;3.85;;;;;;;;;;4363205;32;20143;-71
2021/12/07 02:12:47;;;;;;;19.87;4.15;;;;;;;;;;4362785;32;20027;-71
2021/12/07 02:15:14;;;;;;;15.77;3.67;;;;;;;;;;4363092;32;20092;-71
2021/12/07 02:17:39;;;;;;;17.37;3.80;;;;;;;;;;4362231;32;20027;-71
2021/12/07 02:20:05;;;;;;;;;;;;;;;;;;4362697;32;20446;-71
2021/12/07 02:22:30;;;;;;;27.45;3.85;;;;;;;;;;4362196;32;19939;-71
2021/12/07 02:24:55;;;;;;;;;;;;;;;;;;4362763;32;20311;-71
2021/12/07 02:27:34;;;;;;;21.42;5.47;;;;;;;;;;4361966;32;20016;-71
2021/12/07 02:29:59;;;;;;;12.45;4.20;;;;;;;;;;4362551;32;20023;-71
2021/12/07 02:32:24;;;;;;;;;;;;;;;;;;4360937;32;20315;-71
2021/12/07 02:34:57;;;;;;;20.15;3.55;;;;;;;;;;4362131;32;19948;-71
2021/12/07 02:37:32;;;;;;;18.00;3.92;;;;;;;;;;4360837;32;20512;-71
2021/12/07 02:40:01;;;;;;;17.70;4.10;;;;;;;;;;4360967;32;20023;-71
2021/12/07 02:42:27;;;;;;;16.05;4.07;;;;;;;;;;4362220;32;20110;-71
2021/12/07 02:44:52;;;;;;;;;;;;;;;;;;4361140;33;20050;-71
2021/12/07 02:47:23;;;;;;;20.42;4.22;;;;;;;;;;4361574;32;19958;-71
2021/12/07 02:49:48;;;;;;;23.92;4.10;;;;;;;;;;4361359;32;20038;-71
2021/12/07 02:52:13;;;;;;;;;;;;;;;;;;4362061;32;20454;-71
2021/12/07 02:54:45;;;;;;;17.67;4.95;;;;;;;;;;4371477;32;19938;-71
2021/12/07 02:57:15;;;;;;;18.50;4.90;;;;;;;;;;4376577;32;20138;-70
2021/12/07 03:00:08;;;;;;;21.02;5.22;;;;;;;;;;4376831;32;20049;-71
2021/12/07 03:02:43;;;;;;;18.92;4.80;;;;;;;;;;4363533;32;20034;-71
2021/12/07 03:05:25;;;;;;;13.93;3.67;;;;;;;;;;4376855;32;20424;-71
2021/12/07 03:27:05;;;;;;;15.32;3.47;;;;;;;;;;4377089;32;20049;-71
2021/12/07 03:29:31;;;;;;;;;;;;;;;;;;4376307;32;20019;-71
2021/12/07 03:31:56;;;;;;;19.83;3.03;;;;;;;;;;4377217;32;20293;-71
2021/12/07 03:34:21;;;;;;;;;;;;;;;;;;4376821;32;20082;-71
2021/12/07 03:36:47;;;;;;;26.00;3.70;;;;;;;;;;4375669;32;19964;-71
2021/12/07 03:39:12;;;;;;;;;;;;;;;;;;4376649;32;20166;-71
2021/12/07 03:41:37;;;;;;;20.92;4.20;;;;;;;;;;4376159;32;20024;-71
2021/12/07 03:44:03;;;;;;;;;;;;;;;;;;4376615;32;20118;-71
2021/12/07 03:46:28;;;;;;;16.00;3.70;;;;;;;;;;4376110;32;19981;-71
2021/12/07 03:48:55;;;;;;;;;;;;;;;;;;4376492;32;20045;-71
2021/12/07 03:51:21;;;;;;;16.95;3.40;;;;;;;;;;4375868;32;19942;-71
2021/12/07 03:53:46;;;;;;;;;;;;;;;;;;4375831;32;20069;-71
2021/12/07 03:56:11;;;;;;;21.46;3.56;;;;;;;;;;4376060;32;19973;-71
2021/12/07 03:58:41;;;;;;;;;;;;;;;;;;4376591;32;20045;-71
2021/12/07 04:01:11;;;;;;;22.25;4.57;;;;;;;;;;4376287;32;19945;-70
2021/12/07 04:03:37;;;;;;;22.17;5.57;;;;;;;;;;4375847;32;20091;-70
2021/12/07 04:06:07;;;;;;;21.27;3.87;;;;;;;;;;4376481;32;20073;-71
2021/12/07 04:08:33;;;;;;;21.45;3.92;;;;;;;;;;4376498;32;20171;-71
2021/12/07 04:10:59;;;;;;;22.02;4.10;;;;;;;;;;4376135;32;20365;-71
2021/12/07 04:13:24;;;;;;;;;;;;;;;;;;4362347;32;20435;-71
2021/12/07 04:16:10;;;;;;;21.35;4.22;;;;;;;;;;4375649;32;19956;-71
2021/12/07 04:18:37;;;;;;;16.42;4.15;;;;;;;;;;4375185;32;20069;-71
2021/12/07 04:21:03;;;;;;;13.45;3.08;;;;;;;;;;4376393;32;20506;-71
2021/12/07 04:23:28;;;;;;;;;;;;;;;;;;4375744;32;20020;-71
2021/12/07 04:25:59;;;;;;;16.40;3.58;;;;;;;;;;4375539;32;19964;-71
2021/12/07 04:28:24;;;;;;;18.08;2.97;;;;;;;;;;4361967;32;20037;-71
2021/12/07 04:30:50;;;;;;;;;;;;;;;;;;4375346;32;20039;-71
2021/12/07 04:33:15;;;;;;;13.48;2.87;;;;;;;;;;4375000;32;19997;-71
2021/12/07 04:35:40;;;;;;;;;;;;;;;;;;4375620;32;20019;-71
2021/12/07 04:38:05;;;;;;;14.40;3.83;;;;;;;;;;4375488;32;19953;-71
2021/12/07 04:40:30;;;;;;;;;;;;;;;;;;4375401;32;20415;-71
2021/12/07 04:42:56;;;;;;;18.70;3.67;;;;;;;;;;4376132;32;20240;-71
2021/12/07 04:45:48;;;;;;;;;;;;;;;;;;4375488;32;20122;-71
2021/12/07 04:57:37;;;;;;;;;;;;;;;;;;4375253;32;20054;-71
2021/12/07 04:59:00;;;;;;;15.65;3.87;;;;;;;;;;4375148;32;20042;-72
2021/12/07 05:01:25;;;;;;;14.40;3.58;;;;;;;;;;4374878;32;20039;-72
2021/12/07 05:03:53;;;;;;;;;;;;;;;;;;4375790;32;20440;-73
2021/12/07 05:06:22;;;;;;;16.83;3.35;;;;;;;;;;4375267;32;20275;-72
2021/12/07 05:08:55;;;;;;;15.27;4.03;;;;;;;;;;4375718;32;20076;-72
2021/12/07 05:14:13;;;;;;;;;;;;;;;;;;4378248;32;20380;-71
2021/12/07 05:38:23;;;;;;;15.18;3.08;;;;;;;;;;4378513;32;20084;-72
2021/12/07 05:40:48;;;;;;;;;;;;;;;;;;4377681;32;20417;-71
2021/12/07 05:43:15;;;;;;;12.23;3.35;;;;;;;;;;4377201;32;19978;-71
2021/12/07 05:45:41;;;;;;;12.40;3.15;;;;;;;;;;4377584;32;20049;-71
2021/12/07 05:48:06;;;;;;;;;;;;;;;;;;4377737;32;20057;-71
2021/12/07 05:50:33;;;;;;;16.33;4.20;;;;;;;;;;4377999;32;19982;-71
2021/12/07 05:52:59;;;;;;;15.80;3.45;;;;;;;;;;4363608;32;20023;-71
2021/12/07 05:55:24;;;;;;;;;;;;;;;;;;4377314;32;20085;-72
2021/12/07 05:57:49;;;;;;;17.23;3.90;;;;;;;;;;4377154;32;19942;-71
2021/12/07 06:00:17;;;;;;;;;;;;;;;;;;4364951;32;20027;-70
2021/12/07 06:02:42;;;;;;;16.02;2.92;;;;;;;;;;4361946;32;20331;-71
2021/12/07 06:05:07;;;;;;;;;;;;;;;;;;4364058;32;20042;-72
2021/12/07 06:07:32;;;;;;;11.40;3.17;;;;;;;;;;4362541;32;20004;-72
2021/12/07 06:09:57;;;;;;;;;;;;;;;;;;4363434;32;20019;-72
2021/12/07 06:12:23;;;;;;;12.75;3.50;;;;;;;;;;4362245;32;19980;-71
2021/12/07 06:14:48;;;;;;;;;;;;;;;;;;4362677;32;20342;-71
2021/12/07 06:17:13;;;;;;;24.90;4.03;;;;;;;;;;4362632;32;19934;-71
2021/12/07 06:19:39;;;;;;;;;;;;;;;;;;4362824;32;20024;-71
2021/12/07 06:22:05;;;;;;;21.37;7.75;;;;;;;;;;4362097;33;20022;-72
2021/12/07 06:24:42;;;;;;;26.10;6.72;;;;;;;;;;4361294;32;20111;-72
2021/12/07 06:27:15;;;;;;;24.60;7.82;;;;;;;;;;4350838;33;20023;-72
2021/12/07 06:29:40;;;;;;;17.73;5.78;;;;;;;;;;4362385;32;20034;-72
2021/12/07 06:32:05;;;;;;;;;;;;;;;;;;4362227;32;20023;-72
2021/12/07 06:34:31;;;;;;;17.80;5.37;;;;;;;;;;4362218;32;19965;-72
2021/12/07 06:36:56;;;;;;;;;;;;;;;;;;4349083;33;20069;-72
2021/12/07 06:39:22;;;;;;;16.60;4.72;;;;;;;;;;4361816;32;19966;-72
2021/12/07 06:41:47;;;;;;;;;;;;;;;;;;4362303;32;20046;-72
2021/12/07 06:44:13;;;;;;;14.93;5.00;;;;;;;;;;4348641;33;19973;-71
2021/12/07 06:46:38;;;;;;;;;;;;;;;;;;4362101;32;20369;-71
2021/12/07 06:49:03;;;;;;;17.72;5.40;;;;;;;;;;4361814;33;19969;-72
2021/12/07 06:51:28;;;;;;;;;;;;;;;;;;4362943;32;20027;-71
2021/12/07 06:53:54;;;;;;;17.83;6.07;;;;;;;;;;4360804;32;20269;-71
2021/12/07 06:56:19;;;;;;;;;;;;;;;;;;4362101;32;20522;-72
2021/12/07 06:58:44;;;;;;;15.20;5.25;;;;;;;;;;4360896;33;19944;-70
2021/12/07 07:01:11;;;;;;;;;;;;;;;;;;4362122;32;20115;-72
2021/12/07 07:03:37;;;;;;;14.60;4.03;;;;;;;;;;4361721;32;19938;-71
2021/12/07 07:06:02;;;;;;;;;;;;;;;;;;4361899;32;20074;-71
2021/12/07 07:08:27;;;;;;;12.86;4.50;;;;;;;;;;4361756;32;19962;-71
2021/12/07 07:10:53;;;;;;;;;;;;;;;;;;4362153;32;20041;-70
2021/12/07 07:13:18;;;;;;;27.38;6.84;;;;;;;;;;4347947;33;19949;-73
2021/12/07 07:15:46;;;;;;;;;;;;;;;;;;4361702;32;20043;-72
2021/12/07 07:18:14;;;;;;;19.80;5.68;;;;;;;;;;4361307;32;19950;-71
2021/12/07 07:20:39;;;;;;;22.27;6.10;;;;;;;;;;4361366;32;20019;-71
2021/12/07 07:23:05;;;;;;;;;;;;;;;;;;4360976;33;20515;-71
2021/12/07 07:25:30;;;;;;;18.27;3.90;;;;;;;;;;4360689;32;19976;-71
2021/12/07 07:27:56;;;;;;;;;;;;;;;;;;4361113;33;20114;-72
2021/12/07 07:30:21;;;;;;;12.90;4.40;;;;;;;;;;4347399;33;20292;-72
2021/12/07 07:32:46;;;;;;;;;;;;;;;;;;4361909;32;20054;-72
2021/12/07 07:35:12;;;;;;;13.90;4.62;;;;;;;;;;4357264;32;19938;-70
2021/12/07 07:37:37;;;;;;;;;;;;;;;;;;4361888;32;20170;-71
2021/12/07 07:40:04;;;;;;;15.10;4.62;;;;;;;;;;4360583;32;19962;-71
2021/12/07 07:42:30;;;;;;;21.35;4.80;;;;;;;;;;4360330;32;20035;-72
2021/12/07 07:44:55;;;;;;;;;;;;;;;;;;4360815;33;20069;-72
2021/12/07 07:47:20;;;;;;;15.82;4.80;;;;;;;;;;4360979;32;19935;-72
2021/12/07 07:49:48;;;;;;;;;;;;;;;;;;4361704;32;20154;-70
2021/12/07 07:52:13;;;;;;;21.70;5.32;;;;;;;;;;4359957;32;19938;-70
2021/12/07 07:54:39;;;;;;;;;;;;;;;;;;4361149;32;20532;-72
2021/12/07 07:57:04;;;;;;;16.60;4.37;;;;;;;;;;4360621;33;19973;-71
2021/12/07 07:59:29;;;;;;;;;;;;;;;;;;4347309;33;20398;-71
2021/12/07 08:01:54;;;;;;;17.20;4.87;;;;;;;;;;4360190;33;19934;-71
2021/12/07 08:04:19;;;;;;;;;;;;;;;;;;4347676;33;20238;-71
2021/12/07 08:06:45;;;;;;;15.16;4.24;;;;;;;;;;4348576;32;19948;-71
2021/12/07 08:09:18;;;;;;;;;;;;;;;;;;4347369;33;20019;-71
2021/12/07 08:11:43;;;;;;;24.58;4.97;;;;;;;;;;4361118;32;19977;-71
2021/12/07 08:14:08;;;;;;;;;;;;;;;;;;4361032;32;20049;-72
2021/12/07 08:16:34;;;;;;;16.60;5.40;;;;;;;;;;4361008;32;19958;-71
2021/12/07 08:18:59;;;;;;;;;;;;;;;;;;4360877;32;20054;-71
2021/12/07 08:21:25;;;;;;;13.13;4.20;;;;;;;;;;4361083;32;20374;-71
2021/12/07 08:23:50;;;;;;;;;;;;;;;;;;4361047;32;20057;-71
2021/12/07 08:26:16;;;;;;;23.35;5.47;;;;;;;;;;4360735;32;19939;-72
2021/12/07 08:28:42;;;;;;;18.60;3.75;;;;;;;;;;4360257;32;20024;-71
2021/12/07 08:31:07;;;;;;;;;;;;;;;;;;4361050;32;20397;-70
2021/12/07 08:33:32;;;;;;;16.02;4.32;;;;;;;;;;4361583;32;20391;-71
2021/12/07 08:36:00;;;;;;;;;;;;;;;;;;4360953;32;20130;-70
2021/12/07 08:38:25;;;;;;;15.35;3.80;;;;;;;;;;4361252;32;19943;-73
2021/12/07 08:40:53;;;;;;;;;;;;;;;;;;4361142;32;20393;-71
2021/12/07 08:43:20;;;;;;;21.25;5.18;;;;;;;;;;4360376;32;19947;-71
2021/12/07 08:45:45;;;;;;;13.27;3.70;;;;;;;;;;4359749;32;20023;-72
2021/12/07 08:48:11;;;;;;;;;;;;;;;;;;4360198;33;20361;-71
2021/12/07 08:50:36;;;;;;;19.55;5.53;;;;;;;;;;4346411;33;20242;-71
2021/12/07 08:53:03;;;;;;;;;;;;;;;;;;4361231;33;20045;-72
2021/12/07 09:01:04;;;;;;;22.48;4.72;;;;;;;;;;4345846;33;20070;-72
2021/12/07 09:03:29;;;;;;;;;;;;;;;;;;4345468;33;20043;-72
2021/12/07 09:05:54;;;;;;;15.58;4.34;;;;;;;;;;4351959;32;20321;-71
2021/12/07 09:08:19;;;;;;;;;;;;;;;;;;4345577;33;20028;-72
2021/12/07 09:10:45;;;;;;;16.73;4.82;;;;;;;;;;4345531;33;19944;-72
2021/12/07 09:13:10;;;;;;;;;;;;;;;;;;4345644;33;20461;-71
2021/12/07 09:15:36;;;;;;;19.70;5.20;;;;;;;;;;4345532;33;19939;-72
2021/12/07 09:18:01;;;;;;;;;;;;;;;;;;4345988;33;20028;-73
2021/12/07 09:20:26;;;;;;;20.12;5.65;;;;;;;;;;4346282;33;19939;-71
2021/12/07 09:22:52;;;;;;;;;;;;;;;;;;4360031;33;20133;-72
2021/12/07 09:25:18;;;;;;;21.65;7.00;;;;;;;;;;4359594;33;19953;-72
2021/12/07 09:27:44;;;;;;;19.12;7.18;;;;;;;;;;4359599;33;20518;-71
2021/12/07 09:30:09;;;;;;;;;;;;;;;;;;4360248;33;20065;-72
2021/12/07 09:32:34;;;;;;;25.85;7.25;;;;;;;;;;4360160;33;20219;-72
2021/12/07 09:35:02;;;;;;;;;;;;;;;;;;4359977;33;20138;-72
2021/12/07 09:37:27;;;;;;;27.67;9.30;;;;;;;;;;4359815;33;20309;-71
2021/12/07 09:39:52;;;;;;;;;;;;;;;;;;4360908;33;20109;-72
2021/12/07 09:42:17;;;;;;;33.47;8.70;;;;;;;;;;4360784;33;20299;-70
2021/12/07 09:44:43;;;;;;;;;;;;;;;;;;4346846;33;20020;-71
2021/12/07 09:47:08;;;;;;;27.00;10.20;;;;;;;;;;4360877;33;19943;-72
2021/12/07 09:49:33;;;;;;;;;;;;;;;;;;4346794;33;20123;-72
2021/12/07 09:52:02;;;;;;;29.70;10.50;;;;;;;;;;4360975;33;19950;-72
2021/12/07 09:54:30;;;;;;;26.75;8.77;;;;;;;;;;4359634;33;20044;-71
2021/12/07 09:56:56;;;;;;;32.75;10.00;;;;;;;;;;4360187;33;20058;-72
2021/12/07 09:59:21;;;;;;;;;;;;;;;;;;4363437;32;20141;-72
2021/12/07 10:01:49;;;;;;;40.95;9.55;;;;;;;;;;4362057;32;19995;-72
2021/12/07 10:04:15;;;;;;;30.05;9.25;;;;;;;;;;4349746;33;20181;-72
2021/12/07 10:06:40;;;;;;;;;;;;;;;;;;4362223;32;20492;-72
2021/12/07 10:09:06;;;;;;;36.13;9.35;;;;;;;;;;4363823;32;20280;-71
2021/12/07 10:11:32;;;;;;;30.42;9.23;;;;;;;;;;4362199;32;20027;-71
2021/12/07 10:13:57;;;;;;;;;;;;;;;;;;4349702;33;20060;-71
2021/12/07 10:16:23;;;;;;;33.53;9.98;;;;;;;;;;4362122;32;20008;-71
2021/12/07 10:18:59;;;;;;;36.88;10.45;;;;;;;;;;4361760;32;20377;-72
2021/12/07 10:21:27;;;;;;;28.87;10.75;;;;;;;;;;4363733;32;20024;-72
2021/12/07 10:23:55;;;;;;;38.70;11.40;;;;;;;;;;4362129;32;20081;-71
2021/12/07 10:26:25;;;;;;;34.42;12.07;;;;;;;;;;4361764;32;20077;-72
2021/12/07 10:28:52;;;;;;;35.53;10.32;;;;;;;;;;4362546;32;20024;-72
2021/12/07 10:31:20;;;;;;;34.78;11.70;;;;;;;;;;4349292;33;20028;-71
2021/12/07 10:33:52;;;;;;;43.28;12.00;;;;;;;;;;4361679;32;20043;-71
2021/12/07 10:36:52;;;;;;;28.58;10.48;;;;;;;;;;4361780;32;20024;-71
2021/12/07 10:39:16;;;;;;;36.58;11.27;;;;;;;;;;4360122;33;20019;-71
2021/12/07 10:41:47;;;;;;;35.40;10.18;;;;;;;;;;4362182;32;20069;-72
2021/12/07 10:44:19;;;;;;;33.28;11.15;;;;;;;;;;4362040;32;20089;-71
2021/12/07 10:46:51;;;;;;;41.75;9.50;;;;;;;;;;4347880;33;20016;-72
2021/12/07 10:49:29;;;;;;;;;;;;;;;;;;;;;
2021/12/07 10:52:20;;;;;;;38.83;9.43;;;;;;;;;;4362816;32;20401;-72
2021/12/07 10:54:48;;;;;;;34.58;10.55;;;;;;;;;;4361343;32;20126;-72
2021/12/07 10:57:16;;;;;;;36.53;8.80;;;;;;;;;;4361790;32;20130;-73
2021/12/07 10:59:48;;;;;;;37.90;12.32;;;;;;;;;;4361843;32;20027;-72
2021/12/07 11:02:18;;;;;;;29.87;8.27;;;;;;;;;;4361766;32;20027;-71
2021/12/07 11:04:46;;;;;;;32.60;9.88;;;;;;;;;;4361945;32;20077;-72
2021/12/07 11:07:17;;;;;;;31.52;9.88;;;;;;;;;;4361322;33;20448;-71
2021/12/07 11:10:07;;;;;;;31.55;8.23;;;;;;;;;;4347194;33;20428;-72
2021/12/07 11:12:42;;;;;;;31.90;9.75;;;;;;;;;;4361097;32;20188;-73
2021/12/07 11:15:15;;;;;;;27.08;8.88;;;;;;;;;;4347860;33;20031;-72
2021/12/07 11:17:46;;;;;;;34.72;9.55;;;;;;;;;;4361282;32;20011;-72
2021/12/07 11:20:15;;;;;;;31.65;8.57;;;;;;;;;;4361867;32;20348;-72
2021/12/07 11:22:43;;;;;;;34.90;10.07;;;;;;;;;;4361047;32;20035;-72
2021/12/07 11:25:09;;;;;;;43.15;10.90;;;;;;;;;;4360634;32;20019;-72
2021/12/07 11:30:21;;;;;;;48.28;11.65;;;;;;;;;;4362223;32;19942;-72
2021/12/07 11:32:55;;;;;;;34.50;10.23;;;;;;;;;;4360823;32;20031;-73
2021/12/07 11:35:27;;;;;;;34.28;9.43;;;;;;;;;;4361327;32;20042;-71
2021/12/07 11:37:54;;;;;;;32.47;8.52;;;;;;;;;;4361130;32;20049;-73
2021/12/07 11:40:25;;;;;;;31.77;8.48;;;;;;;;;;4361139;32;20390;-72
2021/12/07 11:42:50;;;;;;;26.80;8.30;;;;;;;;;;4361492;32;20409;-72
2021/12/07 11:45:15;;;;;;;;;;;;;;;;;;4360793;32;20027;-71
2021/12/07 11:47:43;;;;;;;18.92;6.37;;;;;;;;;;4360767;32;20268;-73
2021/12/07 11:50:11;;;;;;;24.55;6.32;;;;;;;;;;4360943;32;20024;-72
2021/12/07 11:53:22;;;;;;;17.30;5.68;;;;;;;;;;4361262;32;20114;-73
2021/12/07 11:55:31;;;;;;;18.08;5.82;;;;;;;;;;4352394;33;20180;-72
2021/12/07 11:58:21;;;;;;;21.37;5.32;;;;;;;;;;4361205;32;20019;-72
2021/12/07 12:01:12;;;;;;;20.55;5.72;;;;;;;;;;4360882;32;20031;-72
2021/12/07 12:03:38;;;;;;;15.38;5.20;;;;;;;;;;4361389;32;20057;-72
2021/12/07 12:06:03;;;;;;;;;;;;;;;;;;4361069;32;20019;-73
2021/12/07 12:08:29;;;;;;;23.50;5.37;;;;;;;;;;4360421;32;19934;-72
2021/12/07 12:10:54;;;;;;;;;;;;;;;;;;4360813;32;20035;-73
2021/12/07 12:13:46;;;;;;;13.50;4.78;;;;;;;;;;4360757;32;19949;-72
2021/12/07 12:16:21;;;;;;;23.95;7.00;;;;;;;;;;4360737;32;20177;-71
2021/12/07 12:19:34;;;;;;;;;;;;;;;;;;;;;
2021/12/07 12:22:18;;;;;;;20.48;6.20;;;;;;;;;;4359500;32;20028;-73
2021/12/07 12:25:36;;;;;;;16.20;4.70;;;;;;;;;;4360588;32;20065;-73
2021/12/07 12:27:37;;;;;;;14.35;5.10;;;;;;;;;;4352260;33;20103;-72
2021/12/07 12:30:02;;;;;;;;;;;;;;;;;;4360550;32;20107;-73
2021/12/07 12:32:29;;;;;;;13.76;5.92;;;;;;;;;;4360403;32;19974;-72
2021/12/07 12:34:55;;;;;;;12.52;5.43;;;;;;;;;;4360382;32;20027;-72
2021/12/07 12:37:22;;;;;;;16.92;5.43;;;;;;;;;;4347015;33;20019;-71
2021/12/07 12:39:57;;;;;;;13.27;4.97;;;;;;;;;;4361097;32;20102;-71
2021/12/07 12:42:39;;;;;;;14.10;6.30;;;;;;;;;;4347213;33;20057;-71
2021/12/07 12:45:10;;;;;;;16.50;4.93;;;;;;;;;;4359613;32;20039;-71
2021/12/07 12:48:01;;;;;;;14.30;5.32;;;;;;;;;;4346432;33;20023;-72
2021/12/07 12:50:49;;;;;;;15.07;5.53;;;;;;;;;;4359452;33;20065;-72
2021/12/07 12:53:24;;;;;;;19.92;6.20;;;;;;;;;;4361190;33;20093;-72
2021/12/07 12:55:58;;;;;;;13.73;4.37;;;;;;;;;;4359579;33;20058;-72
2021/12/07 12:58:37;;;;;;;18.25;5.00;;;;;;;;;;4361348;33;20055;-72
2021/12/07 13:01:32;;;;;;;14.25;4.62;;;;;;;;;;4360016;33;20050;-72
2021/12/07 13:04:17;;;;;;;17.55;5.53;;;;;;;;;;4353346;33;20335;-72
2021/12/07 13:07:01;;;;;;;18.00;4.62;;;;;;;;;;4361003;33;20051;-72
2021/12/07 13:10:13;;;;;;;25.33;5.40;;;;;;;;;;4359738;33;20045;-72
2021/12/07 13:12:18;;;;;;;17.27;5.65;;;;;;;;;;4352334;33;20405;-72
2021/12/07 13:15:49;;;;;;;15.00;4.55;;;;;;;;;;4359765;33;20093;-71
2021/12/07 13:18:12;;;;;;;14.45;4.95;;;;;;;;;;4351813;33;20027;-71
2021/12/07 13:21:05;;;;;;;16.42;4.87;;;;;;;;;;4360238;33;20080;-72
2021/12/07 13:23:32;;;;;;;17.83;5.50;;;;;;;;;;4360498;33;20028;-73
2021/12/07 13:25:57;;;;;;;23.15;5.12;;;;;;;;;;4360160;33;20078;-72
2021/12/07 13:28:24;;;;;;;;;;;;;;;;;;4360043;33;20066;-72
2021/12/07 13:31:24;;;;;;;14.15;4.80;;;;;;;;;;4359620;33;19969;-72
2021/12/07 13:33:51;;;;;;;14.07;4.85;;;;;;;;;;4363752;32;20050;-72
2021/12/07 13:36:58;;;;;;;;;;;;;;;;;;;;;
2021/12/07 13:39:48;;;;;;;14.20;4.70;;;;;;;;;;4360154;33;20334;-73
2021/12/07 13:42:33;;;;;;;16.85;4.97;;;;;;;;;;4363512;32;20054;-71
2021/12/07 13:45:05;;;;;;;17.45;5.65;;;;;;;;;;4363160;32;20031;-72
2021/12/07 13:47:51;;;;;;;19.45;5.40;;;;;;;;;;4362409;32;20035;-72
2021/12/07 13:50:22;;;;;;;18.23;5.55;;;;;;;;;;4362139;33;20097;-72
2021/12/07 13:52:54;;;;;;;24.27;6.30;;;;;;;;;;4363644;32;20069;-71
2021/12/07 13:55:30;;;;;;;20.73;5.85;;;;;;;;;;4362490;32;20069;-72
2021/12/07 13:57:57;;;;;;;22.50;5.72;;;;;;;;;;4362153;32;20110;-71
2021/12/07 14:00:26;;;;;;;15.45;5.72;;;;;;;;;;4362504;32;20028;-72
2021/12/07 14:02:56;;;;;;;15.77;5.57;;;;;;;;;;4363538;32;20112;-72
2021/12/07 14:05:28;;;;;;;17.42;5.00;;;;;;;;;;4362291;32;20349;-73
2021/12/07 14:07:57;;;;;;;21.15;5.97;;;;;;;;;;4362679;32;20098;-72
2021/12/07 14:10:24;;;;;;;11.77;4.70;;;;;;;;;;4362768;32;20077;-72
2021/12/07 14:12:53;;;;;;;23.38;6.10;;;;;;;;;;4362139;32;20057;-71
2021/12/07 14:15:23;;;;;;;14.02;4.22;;;;;;;;;;4362895;32;20361;-73
2021/12/07 14:17:54;;;;;;;23.00;5.47;;;;;;;;;;4362641;32;20050;-70
2021/12/07 14:21:06;;;;;;;20.45;5.28;;;;;;;;;;4361840;33;20049;-72
2021/12/07 14:23:32;;;;;;;23.87;5.37;;;;;;;;;;4347577;33;20039;-72
2021/12/07 14:26:03;;;;;;;22.25;5.35;;;;;;;;;;4362624;32;20054;-72
2021/12/07 14:29:02;;;;;;;16.62;4.62;;;;;;;;;;4362029;33;20015;-73
2021/12/07 14:31:33;;;;;;;13.50;4.75;;;;;;;;;;4361653;32;20358;-72
2021/12/07 14:33:59;;;;;;;18.73;4.70;;;;;;;;;;4363646;32;20019;-72
2021/12/07 14:36:38;;;;;;;12.43;4.50;;;;;;;;;;4361975;32;20043;-72
2021/12/07 14:39:07;;;;;;;13.23;4.70;;;;;;;;;;4362738;32;20113;-71
2021/12/07 14:41:35;;;;;;;18.12;4.80;;;;;;;;;;4362116;32;20058;-72
2021/12/07 14:44:00;;;;;;;20.02;4.82;;;;;;;;;;4361337;32;20066;-72
2021/12/07 14:46:25;;;;;;;;;;;;;;;;;;4362510;32;20028;-72
2021/12/07 14:48:52;;;;;;;17.48;4.60;;;;;;;;;;4373980;32;19938;-71
2021/12/07 14:51:20;;;;;;;17.33;4.75;;;;;;;;;;4362343;32;20109;-71
2021/12/07 14:53:47;;;;;;;18.12;5.47;;;;;;;;;;4361321;32;20385;-71
2021/12/07 14:56:19;;;;;;;17.08;4.68;;;;;;;;;;4375801;32;20061;-73
2021/12/07 14:58:45;;;;;;;19.70;5.25;;;;;;;;;;4377422;32;20451;-72
2021/12/07 15:01:15;;;;;;;17.52;3.87;;;;;;;;;;4376840;32;20096;-72
2021/12/07 15:03:45;;;;;;;16.10;4.50;;;;;;;;;;4362671;32;20102;-72
2021/12/07 15:06:13;;;;;;;17.12;4.50;;;;;;;;;;4375699;32;20050;-71
2021/12/07 15:08:38;;;;;;;16.60;5.40;;;;;;;;;;4377102;32;20310;-72
2021/12/07 15:11:04;;;;;;;;;;;;;;;;;;4363402;32;20044;-71
2021/12/07 15:13:33;;;;;;;26.40;5.28;;;;;;;;;;4377631;32;19942;-71
2021/12/07 15:15:58;;;;;;;14.15;4.80;;;;;;;;;;4376703;32;20439;-71
2021/12/07 15:18:23;;;;;;;;;;;;;;;;;;4377315;32;20027;-72
2021/12/07 15:20:48;;;;;;;13.90;4.47;;;;;;;;;;4375963;32;19945;-72
2021/12/07 15:23:13;;;;;;;;;;;;;;;;;;4376257;32;20125;-72
2021/12/07 15:25:39;;;;;;;13.88;3.72;;;;;;;;;;4376213;32;19943;-72
2021/12/07 15:28:04;;;;;;;;;;;;;;;;;;4352313;33;20119;-72
2021/12/07 15:30:39;;;;;;;12.88;3.87;;;;;;;;;;4360819;32;19986;-72
2021/12/07 15:33:04;;;;;;;16.70;4.32;;;;;;;;;;4360950;33;20020;-72
2021/12/07 15:35:29;;;;;;;;;;;;;;;;;;4361295;33;20330;-71
2021/12/07 15:37:57;;;;;;;14.77;3.78;;;;;;;;;;4361404;32;19939;-71
2021/12/07 15:40:24;;;;;;;18.10;3.50;;;;;;;;;;4362419;32;20236;-71
2021/12/07 15:42:49;;;;;;;15.98;3.90;;;;;;;;;;4361286;32;20061;-71
2021/12/07 15:45:15;;;;;;;;;;;;;;;;;;4361764;32;20023;-72
2021/12/07 15:47:41;;;;;;;11.82;3.90;;;;;;;;;;4360999;32;20255;-71
2021/12/07 15:50:11;;;;;;;14.68;3.87;;;;;;;;;;4361321;32;20405;-71
2021/12/07 15:52:38;;;;;;;12.75;3.92;;;;;;;;;;4360904;32;20027;-73
2021/12/07 15:55:06;;;;;;;11.82;3.83;;;;;;;;;;4360477;32;20067;-71
2021/12/07 15:57:55;;;;;;;16.62;4.75;;;;;;;;;;4360283;33;20178;-72
2021/12/07 16:00:26;;;;;;;16.00;4.28;;;;;;;;;;4361048;32;20020;-72
2021/12/07 16:02:53;;;;;;;18.70;5.20;;;;;;;;;;4361335;32;20049;-71
2021/12/07 16:05:19;;;;;;;18.40;4.97;;;;;;;;;;4360356;32;20042;-72
2021/12/07 16:07:54;;;;;;;;;;;;;;;;;;;;;
2021/12/07 16:10:34;;;;;;;15.60;4.75;;;;;;;;;;4360612;33;19938;-72
2021/12/07 16:13:02;;;;;;;12.80;4.25;;;;;;;;;;4361876;32;20054;-72
2021/12/07 16:15:28;;;;;;;13.98;4.37;;;;;;;;;;4360865;32;20394;-71
2021/12/07 16:17:53;;;;;;;;;;;;;;;;;;4361494;32;20055;-72
2021/12/07 16:20:46;;;;;;;12.20;4.43;;;;;;;;;;4360627;32;19974;-73
2021/12/07 16:23:14;;;;;;;24.67;5.05;;;;;;;;;;4360552;32;20154;-72
2021/12/07 16:25:40;;;;;;;16.05;4.95;;;;;;;;;;4361016;32;20031;-72
2021/12/07 16:28:05;;;;;;;;;;;;;;;;;;4360690;32;20023;-72
2021/12/07 16:30:30;;;;;;;12.55;5.00;;;;;;;;;;4360533;32;19972;-73
2021/12/07 16:32:55;;;;;;;;;;;;;;;;;;4361401;32;20023;-72
2021/12/07 16:35:33;;;;;;;15.25;5.05;;;;;;;;;;4347153;33;20312;-71
2021/12/07 16:37:59;;;;;;;12.95;4.60;;;;;;;;;;4360028;33;20070;-72
2021/12/07 16:40:26;;;;;;;17.27;5.18;;;;;;;;;;4360221;32;20428;-72
2021/12/07 16:42:55;;;;;;;13.98;4.32;;;;;;;;;;4359963;32;20098;-72
2021/12/07 16:45:38;;;;;;;11.70;4.28;;;;;;;;;;4360445;32;20066;-72
2021/12/07 16:48:39;;;;;;;13.25;4.65;;;;;;;;;;4359886;32;20093;-72
2021/12/07 16:51:05;;;;;;;12.40;5.10;;;;;;;;;;4358343;33;20065;-72
2021/12/07 16:53:30;;;;;;;;;;;;;;;;;;4360652;32;20341;-72
2021/12/07 16:55:55;;;;;;;11.12;4.60;;;;;;;;;;4373351;32;19949;-72
2021/12/07 16:58:21;;;;;;;;;;;;;;;;;;4375841;32;20027;-72
2021/12/07 17:01:03;;;;;;;11.43;4.57;;;;;;;;;;4376053;32;20309;-72
2021/12/07 17:03:28;;;;;;;10.40;4.35;;;;;;;;;;4375108;32;20027;-71
2021/12/07 17:05:54;;;;;;;;;;;;;;;;;;4375647;32;20042;-72
2021/12/07 17:08:19;;;;;;;15.15;4.95;;;;;;;;;;4376541;32;19938;-71